Time;durP1;ratioP1;P1;durP2;ratioP2;P2;SDS_P1;SDS_P2;PMS_P1;PMS_P2;Temp;Humidity;BMP_temperature;BMP_pressure;BME280_temperature;BME280_humidity;BME280_pressure;Samples;Min_cycle;Max_cycle;Signal;HPM_P1;HPM_P2
2022/08/25 00:00:27;;;;;;;5.80;3.10;;;;;;;20.82;88.01;100502.56;130079;1270;109015;-72
2022/08/25 00:03:46;;;;;;;6.00;2.50;;;;;;;20.83;88.14;100506.27;130111;1271;108756;-72
2022/08/25 00:06:54;;;;;;;3.70;3.00;;;;;;;20.86;88.07;100505.52;130155;1270;108593;-72
2022/08/25 00:09:59;;;;;;;6.10;2.90;;;;;;;20.86;88.07;100504.77;130111;1270;107400;-72
2022/08/25 00:13:06;;;;;;;6.20;3.20;;;;;;;20.85;88.02;100504.23;130011;1270;108681;-72
2022/08/25 00:16:13;;;;;;;4.40;2.50;;;;;;;20.83;88.08;100505.73;130138;1270;108964;-72
2022/08/25 00:19:23;;;;;;;7.60;2.80;;;;;;;20.83;88.02;100503.06;130061;1270;107373;-72
2022/08/25 00:22:28;;;;;;;6.10;3.00;;;;;;;20.79;88.06;100503.55;130207;1270;107421;-72
2022/08/25 00:25:34;;;;;;;5.30;2.50;;;;;;;20.76;88.20;100500.91;130069;1271;106991;-72
2022/08/25 00:28:40;;;;;;;3.30;2.50;;;;;;;20.72;88.26;100500.35;130116;1270;108630;-72
2022/08/25 00:31:46;;;;;;;5.50;2.70;;;;;;;20.72;88.33;100498.02;130053;1270;108787;-72
2022/08/25 00:34:52;;;;;;;4.30;2.90;;;;;;;20.73;88.30;100497.09;130101;1270;108845;-72
2022/08/25 00:37:57;;;;;;;4.80;2.80;;;;;;;20.75;88.27;100496.67;130068;1270;106866;-71
2022/08/25 00:41:05;;;;;;;4.80;2.60;;;;;;;20.76;88.32;100493.33;129984;1270;109047;-72
2022/08/25 00:44:16;;;;;;;5.40;2.50;;;;;;;20.76;88.23;100494.20;130030;1270;108747;-72
2022/08/25 00:47:21;;;;;;;4.20;3.00;;;;;;;20.77;88.23;100492.41;130153;1270;108852;-72
2022/08/25 00:50:28;;;;;;;5.50;2.90;;;;;;;20.75;88.10;100491.36;130177;1270;108889;-72
2022/08/25 00:53:34;;;;;;;4.90;3.00;;;;;;;20.70;88.36;100494.14;130148;1270;109132;-72
2022/08/25 00:56:39;;;;;;;5.80;3.30;;;;;;;20.63;88.47;100493.30;130015;1270;108716;-72
2022/08/25 00:59:45;;;;;;;5.20;3.00;;;;;;;20.60;88.53;100497.02;130041;1270;107410;-72
2022/08/25 01:02:51;;;;;;;6.20;3.00;;;;;;;20.56;88.63;100493.20;130138;1270;109044;-72
2022/08/25 01:05:57;;;;;;;4.20;3.00;;;;;;;20.60;88.69;100496.25;130058;1270;108670;-71
2022/08/25 01:09:02;;;;;;;5.30;3.50;;;;;;;20.64;88.67;100501.75;130152;1270;108651;-71
2022/08/25 01:12:08;;;;;;;6.90;3.00;;;;;;;20.64;88.55;100498.95;130177;1271;108567;-71
2022/08/25 01:15:15;;;;;;;3.60;2.50;;;;;;;20.66;88.51;100498.41;130070;1271;108037;-71
2022/08/25 01:18:21;;;;;;;5.10;2.80;;;;;;;20.65;88.49;100496.95;130075;1270;108220;-71
2022/08/25 01:21:29;;;;;;;7.10;3.00;;;;;;;20.66;88.49;100499.20;130140;1270;106848;-71
2022/08/25 01:24:42;;;;;;;5.10;3.20;;;;;;;20.67;88.46;100497.11;130173;1270;108894;-72
2022/08/25 01:27:47;;;;;;;4.60;2.60;;;;;;;20.67;88.58;100496.62;130181;1271;108569;-72
2022/08/25 01:30:53;;;;;;;5.10;2.90;;;;;;;20.68;88.58;100498.03;130124;1270;108493;-72
2022/08/25 01:33:59;;;;;;;3.70;2.60;;;;;;;20.70;88.59;100500.53;130183;1271;107093;-71
2022/08/25 01:37:05;;;;;;;5.50;3.10;;;;;;;20.71;88.51;100503.57;130196;1270;108606;-72
2022/08/25 01:40:13;;;;;;;4.70;2.90;;;;;;;20.73;88.58;100507.70;130222;1270;108002;-72
2022/08/25 01:43:38;;;;;;;7.00;3.40;;;;;;;20.73;88.57;100502.22;130090;1270;108908;-72
2022/08/25 01:46:44;;;;;;;6.80;2.90;;;;;;;20.69;88.46;100499.45;130097;1270;108770;-72
2022/08/25 01:49:49;;;;;;;4.50;2.60;;;;;;;20.64;88.63;100495.70;130145;1270;108744;-72
2022/08/25 01:53:00;;;;;;;5.20;2.80;;;;;;;20.59;88.74;100489.83;130218;1270;107052;-72
2022/08/25 01:56:14;;;;;;;8.30;3.20;;;;;;;20.56;88.88;100487.94;130199;1271;108856;-72
2022/08/25 01:59:22;;;;;;;3.70;2.60;;;;;;;20.56;89.05;100494.36;130029;1271;108645;-71
2022/08/25 02:02:27;;;;;;;6.10;2.70;;;;;;;20.57;89.11;100489.36;130076;1271;108746;-71
2022/08/25 02:05:33;;;;;;;4.10;3.10;;;;;;;20.59;89.18;100488.77;130032;1270;108983;-71
2022/08/25 02:08:38;;;;;;;4.50;2.70;;;;;;;20.57;89.24;100485.77;130030;1270;108795;-71
2022/08/25 02:11:46;;;;;;;6.00;3.20;;;;;;;20.59;89.29;100486.73;130078;1270;108104;-71
2022/08/25 02:14:52;;;;;;;3.60;2.60;;;;;;;20.61;89.23;100491.67;130100;1271;108768;-71
2022/08/25 02:17:57;;;;;;;6.30;2.90;;;;;;;20.62;89.21;100493.54;129989;1270;108757;-71
2022/08/25 02:21:02;;;;;;;6.40;3.00;;;;;;;20.61;89.16;100491.41;130045;1270;108739;-72
2022/08/25 02:24:08;;;;;;;5.20;3.00;;;;;;;20.58;89.14;100488.16;130095;1270;109095;-71
2022/08/25 02:27:14;;;;;;;7.40;3.50;;;;;;;20.53;89.20;100485.23;130050;1271;109747;-71
2022/08/25 02:30:19;;;;;;;8.50;3.30;;;;;;;20.52;89.33;100484.70;130059;1271;108905;-72
2022/08/25 02:33:24;;;;;;;6.20;2.90;;;;;;;20.52;89.43;100484.86;129974;1270;108696;-70
2022/08/25 02:36:30;;;;;;;8.20;3.30;;;;;;;20.54;89.44;100483.81;129949;1270;108806;-70
2022/08/25 02:39:36;;;;;;;4.20;2.60;;;;;;;20.55;89.31;100480.30;129921;1270;107157;-70
2022/08/25 02:42:41;;;;;;;3.90;2.70;;;;;;;20.57;89.35;100477.52;130042;1271;108858;-71
2022/08/25 02:45:47;;;;;;;6.40;2.70;;;;;;;20.56;89.31;100481.02;129840;1270;108655;-71
2022/08/25 02:48:54;;;;;;;5.80;2.50;;;;;;;20.54;89.30;100477.39;129830;1271;108672;-71
2022/08/25 02:52:00;;;;;;;4.80;3.10;;;;;;;20.52;89.28;100476.30;130044;1271;108846;-72
2022/08/25 02:55:09;;;;;;;4.40;2.80;;;;;;;20.52;89.23;100471.48;130022;1271;107601;-71
2022/08/25 02:58:14;;;;;;;4.90;3.00;;;;;;;20.52;89.40;100470.73;130089;1271;109268;-75
2022/08/25 03:01:20;;;;;;;4.80;2.80;;;;;;;20.51;89.39;100469.70;130039;1270;108828;-72
2022/08/25 03:04:26;;;;;;;10.00;3.00;;;;;;;20.52;89.53;100465.06;130180;1271;108591;-73
2022/08/25 03:07:31;;;;;;;6.00;2.80;;;;;;;20.54;89.52;100464.33;130151;1271;108784;-73
2022/08/25 03:10:36;;;;;;;5.30;2.80;;;;;;;20.57;89.46;100461.41;130046;1271;108931;-74
2022/08/25 03:13:42;;;;;;;6.70;3.10;;;;;;;20.57;89.50;100457.75;130056;1270;108504;-72
2022/08/25 03:16:47;;;;;;;5.50;2.70;;;;;;;20.57;89.44;100460.91;129992;1271;108608;-72
2022/08/25 03:19:53;;;;;;;5.00;2.80;;;;;;;20.55;89.42;100462.04;130004;1271;108808;-72
2022/08/25 03:22:58;;;;;;;6.40;2.70;;;;;;;20.52;89.56;100460.48;130047;1271;108641;-73
2022/08/25 03:29:30;;;;;;;3.30;3.00;;;;;;;20.55;89.56;100465.34;130063;1271;108663;-72
2022/08/25 03:32:37;;;;;;;4.40;3.00;;;;;;;20.54;89.64;100462.75;130102;1271;108724;-73
2022/08/25 03:35:42;;;;;;;7.00;2.90;;;;;;;20.54;89.61;100462.42;129947;1271;108848;-72
2022/08/25 03:38:48;;;;;;;4.00;2.90;;;;;;;20.57;89.74;100461.08;130009;1271;108759;-72
2022/08/25 03:41:54;;;;;;;3.90;3.30;;;;;;;20.61;89.68;100460.54;130134;1271;108756;-72
2022/08/25 03:45:01;;;;;;;4.80;3.20;;;;;;;20.60;89.58;100466.76;130197;1271;108904;-71
2022/08/25 03:48:07;;;;;;;6.40;3.20;;;;;;;20.56;89.61;100467.92;130088;1271;108684;-72
2022/08/25 03:51:18;;;;;;;4.70;2.60;;;;;;;20.51;89.74;100466.56;130044;1271;108744;-72
2022/08/25 03:54:25;;;;;;;5.20;3.00;;;;;;;20.45;89.92;100467.21;130042;1271;108889;-74
2022/08/25 03:57:30;;;;;;;10.00;4.00;;;;;;;20.40;90.12;100471.00;129994;1271;108391;-72
2022/08/25 04:00:36;;;;;;;5.30;3.10;;;;;;;20.38;90.19;100467.30;130137;1271;108691;-74
2022/08/25 04:03:42;;;;;;;5.70;3.10;;;;;;;20.39;90.33;100465.34;130144;1271;109727;-74
2022/08/25 04:06:48;;;;;;;5.20;2.90;;;;;;;20.42;90.29;100467.54;129981;1271;108733;-74
2022/08/25 04:09:55;;;;;;;5.80;2.90;;;;;;;20.42;90.42;100468.50;130071;1271;108818;-74
2022/08/25 04:13:01;;;;;;;7.20;3.40;;;;;;;20.48;90.41;100464.86;129976;1270;108874;-71
2022/08/25 04:16:13;;;;;;;7.80;3.40;;;;;;;20.48;90.47;100467.86;130035;1271;108682;-76
2022/08/25 04:19:16;;;;;;;;;;;;;;;20.48;90.59;100466.95;130176;1271;109168;-71
2022/08/25 04:22:22;;;;;;;7.50;3.00;;;;;;;20.44;90.74;100467.92;129959;1271;109013;-71
2022/08/25 04:25:27;;;;;;;10.20;4.20;;;;;;;20.42;90.92;100472.34;130134;1271;108965;-73
2022/08/25 04:28:32;;;;;;;8.30;4.00;;;;;;;20.45;91.29;100471.70;129976;1271;108934;-73
2022/08/25 04:31:41;;;;;;;7.50;3.50;;;;;;;20.46;91.34;100473.45;129903;1271;109151;-72
2022/08/25 04:34:47;;;;;;;10.10;4.00;;;;;;;20.41;91.60;100472.27;130016;1271;108929;-71
2022/08/25 04:37:53;;;;;;;11.50;4.50;;;;;;;20.35;92.10;100468.48;130021;1271;108641;-73
2022/08/25 04:41:00;;;;;;;8.10;4.00;;;;;;;20.32;91.97;100467.33;130011;1269;108892;-73
2022/08/25 04:44:06;;;;;;;10.00;4.10;;;;;;;20.34;92.38;100469.28;130045;1270;108594;-73
2022/08/25 04:47:12;;;;;;;8.60;3.90;;;;;;;20.34;92.39;100468.20;130013;1270;108126;-74
2022/08/25 04:50:17;;;;;;;8.40;4.30;;;;;;;20.34;92.63;100469.45;129976;1271;108110;-73
2022/08/25 04:53:23;;;;;;;8.10;4.60;;;;;;;20.35;92.93;100466.93;130087;1270;108843;-73
2022/08/25 04:56:29;;;;;;;10.80;4.10;;;;;;;20.35;93.30;100465.09;130178;1270;108621;-73
2022/08/25 04:59:34;;;;;;;6.80;3.70;;;;;;;20.36;93.29;100468.02;129940;1271;109663;-74
2022/08/25 05:02:40;;;;;;;7.80;4.10;;;;;;;20.41;93.21;100469.27;130076;1270;108828;-72
2022/08/25 05:05:45;;;;;;;9.50;4.20;;;;;;;20.48;93.41;100471.15;130060;1270;108711;-73
2022/08/25 05:08:51;;;;;;;13.00;4.50;;;;;;;20.53;93.98;100477.15;130045;1271;108816;-73
2022/08/25 05:11:56;;;;;;;8.40;3.80;;;;;;;20.49;93.61;100480.87;130025;1270;108663;-74
2022/08/25 05:15:49;;;;;;;9.00;3.80;;;;;;;20.54;93.55;100482.11;129042;1270;1331969;-74
2022/08/25 05:18:29;;;;;;;10.70;4.30;;;;;;;20.62;93.75;100477.56;129984;1270;108665;-74
2022/08/25 05:21:35;;;;;;;9.40;4.20;;;;;;;20.67;93.83;100477.42;130187;1270;108960;-73
2022/08/25 05:24:41;;;;;;;10.00;4.40;;;;;;;20.75;93.61;100477.52;130132;1271;108438;-77
2022/08/25 05:27:46;;;;;;;7.80;3.60;;;;;;;20.80;93.77;100482.27;129917;1270;108807;-80
2022/08/25 05:30:57;;;;;;;9.00;4.10;;;;;;;20.87;93.82;100480.60;130268;1271;109176;-78
2022/08/25 05:34:07;;;;;;;8.20;4.00;;;;;;;20.96;93.80;100474.85;130165;1271;107175;-78
2022/08/25 05:37:12;;;;;;;7.00;4.10;;;;;;;21.07;93.88;100473.02;130168;1271;108686;-78
2022/08/25 05:40:18;;;;;;;7.20;4.10;;;;;;;21.19;93.93;100472.96;130256;1271;107685;-79
2022/08/25 05:43:23;;;;;;;9.00;4.30;;;;;;;21.33;93.74;100474.47;130245;1271;108861;-79
2022/08/25 05:46:29;;;;;;;9.60;4.40;;;;;;;21.54;93.58;100474.69;130218;1271;108871;-79
2022/08/25 05:49:34;;;;;;;11.10;3.90;;;;;;;21.75;93.38;100477.04;130162;1271;108707;-71
2022/08/25 05:52:40;;;;;;;8.00;4.20;;;;;;;21.91;92.93;100478.39;130237;1271;108985;-71
2022/08/25 05:55:47;;;;;;;7.90;3.90;;;;;;;22.02;92.46;100477.27;129973;1270;109500;-68
2022/08/25 05:58:52;;;;;;;9.40;4.40;;;;;;;22.11;92.37;100481.73;130054;1270;108755;-69
2022/08/25 06:05:22;;;;;;;7.70;3.60;;;;;;;22.28;92.21;100479.51;130104;1270;108655;-72
2022/08/25 06:08:31;;;;;;;8.80;4.60;;;;;;;22.32;91.75;100476.15;130097;1270;108192;-74
2022/08/25 06:11:38;;;;;;;7.70;4.30;;;;;;;22.39;91.96;100472.61;130074;1270;109195;-72
2022/08/25 06:14:44;;;;;;;10.40;4.60;;;;;;;22.46;91.53;100463.73;130137;1270;109265;-71
2022/08/25 06:17:50;;;;;;;9.20;4.30;;;;;;;22.46;91.30;100466.30;130083;1270;107268;-72
2022/08/25 06:20:55;;;;;;;9.50;4.10;;;;;;;22.55;91.86;100469.34;130225;1270;109651;-72
2022/08/25 06:24:01;;;;;;;7.40;4.00;;;;;;;22.74;91.24;100471.04;130293;1270;109136;-71
2022/08/25 06:27:07;;;;;;;11.10;5.00;;;;;;;22.89;91.37;100476.03;130278;1270;108837;-71
2022/08/25 06:30:15;;;;;;;9.20;4.30;;;;;;;23.02;90.55;100478.98;130139;1270;108793;-71
2022/08/25 06:33:20;;;;;;;12.20;4.70;;;;;;;23.13;90.61;100483.45;130007;1271;108527;-71
2022/08/25 06:36:26;;;;;;;8.10;4.60;;;;;;;23.18;89.72;100481.14;130093;1270;109069;-71
2022/08/25 06:39:31;;;;;;;7.50;4.10;;;;;;;23.17;89.86;100483.35;129928;1270;108859;-71
2022/08/25 06:42:37;;;;;;;12.00;4.90;;;;;;;23.18;89.55;100478.41;130008;1270;108678;-71
2022/08/25 06:45:43;;;;;;;10.20;5.10;;;;;;;23.14;89.88;100474.77;130047;1270;109726;-72
2022/08/25 06:48:49;;;;;;;9.90;4.60;;;;;;;23.11;89.44;100479.13;129933;1270;107614;-72
2022/08/25 06:51:54;;;;;;;9.50;4.90;;;;;;;23.09;89.97;100476.40;129962;1270;108779;-72
2022/08/25 06:55:00;;;;;;;10.40;4.40;;;;;;;23.13;89.64;100482.45;130037;1270;108968;-71
2022/08/25 06:58:06;;;;;;;10.30;5.20;;;;;;;23.13;89.43;100483.25;130192;1270;108442;-72
2022/08/25 07:01:13;;;;;;;9.60;4.90;;;;;;;23.18;89.64;100483.59;130073;1270;108789;-72
2022/08/25 07:04:19;;;;;;;10.90;5.00;;;;;;;23.34;89.67;100484.45;130123;1270;107450;-72
2022/08/25 07:07:25;;;;;;;10.60;4.60;;;;;;;23.49;89.46;100481.80;130183;1270;108682;-73
2022/08/25 07:10:30;;;;;;;7.80;4.50;;;;;;;23.62;88.93;100485.84;130142;1270;108732;-72
2022/08/25 07:13:37;;;;;;;10.70;5.30;;;;;;;23.67;88.43;100486.30;130164;1270;108611;-72
2022/08/25 07:16:43;;;;;;;15.90;5.80;;;;;;;23.70;88.17;100489.02;130198;1270;108879;-72
2022/08/25 07:19:48;;;;;;;10.50;4.60;;;;;;;23.73;88.26;100486.33;130224;1270;108583;-72
2022/08/25 07:22:54;;;;;;;11.40;5.30;;;;;;;23.87;88.50;100488.98;130119;1270;108750;-72
2022/08/25 07:26:09;;;;;;;14.30;5.40;;;;;;;23.97;87.79;100487.48;130114;1270;108967;-73
2022/08/25 07:29:17;;;;;;;14.70;5.60;;;;;;;24.00;88.26;100494.85;130144;1270;109728;-73
2022/08/25 07:32:22;;;;;;;10.60;5.10;;;;;;;24.13;88.63;100490.21;130192;1269;108052;-72
2022/08/25 07:35:31;;;;;;;13.30;5.50;;;;;;;24.36;88.45;100487.39;130144;1270;108876;-74
2022/08/25 07:38:36;;;;;;;11.50;5.20;;;;;;;24.45;87.57;100492.06;130096;1270;108017;-72
2022/08/25 07:41:43;;;;;;;8.80;4.70;;;;;;;24.55;87.73;100491.59;129980;1270;108828;-72
2022/08/25 07:44:48;;;;;;;12.40;5.40;;;;;;;24.64;87.26;100495.62;129988;1270;108868;-72
2022/08/25 07:47:54;;;;;;;11.00;5.50;;;;;;;24.72;86.02;100498.44;130168;1270;109001;-72
2022/08/25 07:50:59;;;;;;;13.90;5.90;;;;;;;24.84;86.47;100499.41;130217;1270;108299;-72
2022/08/25 07:54:06;;;;;;;16.80;6.10;;;;;;;25.03;87.07;100500.86;130164;1270;108742;-72
2022/08/25 07:57:11;;;;;;;13.30;5.40;;;;;;;25.11;85.83;100504.90;130205;1270;108784;-72
2022/08/25 08:00:17;;;;;;;12.70;5.60;;;;;;;25.09;86.03;100507.45;130204;1270;108717;-72
2022/08/25 08:03:23;;;;;;;10.40;5.80;;;;;;;25.24;86.15;100506.11;130276;1269;108756;-73
2022/08/25 08:06:28;;;;;;;14.90;5.90;;;;;;;25.21;84.67;100510.52;130156;1270;109015;-73
2022/08/25 08:09:34;;;;;;;14.20;6.20;;;;;;;25.18;85.17;100508.83;130205;1270;108842;-73
2022/08/25 08:12:39;;;;;;;9.50;5.40;;;;;;;25.28;85.00;100507.33;130171;1270;108575;-72
2022/08/25 08:15:45;;;;;;;12.00;5.60;;;;;;;25.30;84.84;100506.01;130152;1270;108726;-73
2022/08/25 08:18:51;;;;;;;12.40;5.60;;;;;;;25.26;84.38;100502.12;130215;1270;107005;-73
2022/08/25 08:21:56;;;;;;;11.90;5.60;;;;;;;25.25;84.01;100500.02;129955;1270;108698;-72
2022/08/25 08:25:02;;;;;;;11.30;5.60;;;;;;;25.26;84.49;100497.48;130103;1270;108938;-73
2022/08/25 08:28:07;;;;;;;12.20;5.60;;;;;;;25.34;84.74;100498.05;130234;1270;109593;-73
2022/08/25 08:31:14;;;;;;;13.00;6.20;;;;;;;25.31;83.78;100496.75;130132;1270;108338;-72
2022/08/25 08:34:22;;;;;;;13.50;5.50;;;;;;;25.19;83.85;100496.23;130142;1270;108871;-72
2022/08/25 08:37:28;;;;;;;16.80;5.90;;;;;;;25.14;83.93;100496.27;130269;1270;108529;-72
2022/08/25 08:42:15;;;;;;;13.60;6.00;;;;;;;25.12;84.27;100495.64;130349;1270;107966;-73
2022/08/25 08:44:28;;;;;;;17.30;6.80;;;;;;;25.09;83.59;100496.96;130393;1270;108726;-74
2022/08/25 08:47:48;;;;;;;11.90;6.60;;;;;;;25.00;83.47;100494.48;130345;1270;108881;-73
2022/08/25 08:51:07;;;;;;;13.60;5.90;;;;;;;25.00;84.52;100491.27;130241;1270;107635;-73
2022/08/25 08:54:19;;;;;;;14.70;5.80;;;;;;;25.14;84.11;100489.45;130280;1271;108606;-72
2022/08/25 08:57:28;;;;;;;16.60;6.20;;;;;;;25.28;84.05;100483.45;130247;1270;110033;-72
2022/08/25 09:00:39;;;;;;;13.80;6.50;;;;;;;25.37;83.57;100482.65;130163;1271;109162;-73
2022/08/25 09:03:48;;;;;;;9.90;6.00;;;;;;;25.43;83.62;100482.48;130245;1270;108738;-73
2022/08/25 09:06:55;;;;;;;14.80;7.10;;;;;;;25.45;83.15;100476.17;130187;1270;108552;-72
2022/08/25 09:10:00;;;;;;;15.80;6.80;;;;;;;25.48;82.91;100475.69;130185;1270;108693;-72
2022/08/25 09:13:15;;;;;;;13.60;6.20;;;;;;;25.47;82.55;100471.13;130206;1270;108596;-72
2022/08/25 09:20:20;;;;;;;17.00;6.50;;;;;;;25.64;82.92;100469.57;130237;1270;108553;-72
2022/08/25 09:23:41;;;;;;;11.00;5.80;;;;;;;25.82;82.65;100467.87;130269;1270;109054;-73
2022/08/25 09:26:56;;;;;;;12.40;5.80;;;;;;;25.97;82.31;100463.44;130111;1271;107033;-73
2022/08/25 09:30:05;;;;;;;11.60;5.40;;;;;;;26.08;82.44;100460.13;130118;1269;108843;-73
2022/08/25 09:33:15;;;;;;;11.70;6.00;;;;;;;26.18;81.86;100461.03;130244;1270;108816;-74
2022/08/25 09:36:20;;;;;;;16.10;6.10;;;;;;;26.26;81.73;100462.00;130181;1270;108517;-73
2022/08/25 09:39:26;;;;;;;13.30;6.00;;;;;;;26.37;81.32;100461.55;130171;1270;108708;-72
2022/08/25 09:42:52;;;;;;;12.30;6.30;;;;;;;26.46;80.72;100458.44;130185;1269;108692;-73
2022/08/25 09:46:02;;;;;;;15.80;6.50;;;;;;;26.49;79.81;100461.52;130308;1270;109078;-73
2022/08/25 09:49:15;;;;;;;14.60;6.20;;;;;;;26.42;79.45;100458.94;130149;1270;108961;-73
2022/08/25 09:52:37;;;;;;;16.00;6.70;;;;;;;26.40;80.07;100454.36;130032;1270;108734;-73
2022/08/25 09:55:46;;;;;;;14.30;6.20;;;;;;;26.46;79.99;100453.63;130234;1270;108657;-72
2022/08/25 09:58:52;;;;;;;16.50;6.20;;;;;;;26.46;80.16;100449.36;130151;1270;108845;-72
2022/08/25 10:01:58;;;;;;;14.70;6.40;;;;;;;26.49;79.16;100451.84;130171;1270;108871;-72
2022/08/25 10:05:20;;;;;;;14.30;6.80;;;;;;;26.51;79.85;100448.80;130206;1269;108709;-72
2022/08/25 10:08:33;;;;;;;13.10;6.60;;;;;;;26.56;79.65;100440.35;130356;1270;108729;-72
2022/08/25 10:11:47;;;;;;;16.40;6.70;;;;;;;26.62;78.89;100438.81;130216;1270;108654;-72
2022/08/25 10:14:53;;;;;;;12.60;6.30;;;;;;;26.60;78.48;100431.67;130139;1270;107727;-72
2022/08/25 10:18:19;;;;;;;14.40;6.50;;;;;;;26.61;79.04;100431.25;130150;1270;109005;-72
2022/08/25 10:21:25;;;;;;;11.20;6.00;;;;;;;26.70;79.08;100429.33;130152;1269;108738;-73
2022/08/25 10:24:30;;;;;;;14.80;6.30;;;;;;;26.79;79.10;100421.48;130305;1270;107681;-73
2022/08/25 10:27:47;;;;;;;12.90;6.90;;;;;;;26.86;78.72;100416.89;130307;1270;108823;-73
2022/08/25 10:31:01;;;;;;;15.30;6.50;;;;;;;26.89;77.92;100418.08;130842;1270;108871;-73
2022/08/25 10:34:20;;;;;;;15.30;6.00;;;;;;;26.92;78.03;100416.48;130198;1270;108759;-72
2022/08/25 10:37:51;;;;;;;13.90;6.10;;;;;;;26.95;77.91;100408.95;130232;1270;108671;-74
2022/08/25 10:41:06;;;;;;;14.40;6.60;;;;;;;26.99;78.06;100408.27;130197;1270;107615;-73
2022/08/25 10:47:59;;;;;;;15.30;6.10;;;;;;;27.09;77.37;100400.21;130211;1269;108737;-72
2022/08/25 10:51:14;;;;;;;19.80;6.50;;;;;;;27.14;77.55;100395.00;130207;1271;108786;-74
2022/08/25 10:54:38;;;;;;;14.10;6.00;;;;;;;27.17;76.56;100395.46;130201;1270;108764;-74
2022/08/25 10:57:52;;;;;;;12.30;6.20;;;;;;;27.18;75.69;100390.27;130199;1270;108847;-71
2022/08/25 11:01:08;;;;;;;12.00;6.00;;;;;;;27.21;76.63;100390.95;130206;1270;108863;-72
2022/08/25 11:04:19;;;;;;;15.20;6.40;;;;;;;27.27;76.61;100386.92;130197;1270;108853;-73
2022/08/25 11:07:30;;;;;;;14.10;6.40;;;;;;;27.35;76.91;100382.92;130222;1270;108645;-74
2022/08/25 11:10:45;;;;;;;14.50;6.40;;;;;;;27.39;76.22;100381.77;130124;1270;108753;-74
2022/08/25 11:13:55;;;;;;;16.00;6.70;;;;;;;27.44;75.47;100380.54;130135;1269;108623;-74
2022/08/25 11:17:05;;;;;;;12.90;6.70;;;;;;;27.46;75.32;100372.84;130186;1270;108816;-73
2022/08/25 11:20:16;;;;;;;18.00;6.70;;;;;;;27.50;75.36;100371.27;130167;1270;108461;-72
2022/08/25 11:23:25;;;;;;;14.10;6.70;;;;;;;27.52;75.02;100366.19;130189;1270;108810;-74
2022/08/25 11:26:35;;;;;;;18.80;6.50;;;;;;;27.55;75.19;100364.55;130249;1270;108960;-73
2022/08/25 11:29:54;;;;;;;15.20;6.90;;;;;;;27.57;74.97;100361.77;130241;1269;108959;-72
2022/08/25 11:33:01;;;;;;;13.50;6.90;;;;;;;27.63;75.18;100361.34;130168;1269;108977;-74
2022/08/25 11:36:15;;;;;;;13.10;6.20;;;;;;;27.66;74.45;100361.02;130225;1270;108716;-74
2022/08/25 11:39:34;;;;;;;15.50;6.60;;;;;;;27.71;74.55;100361.34;130278;1269;108968;-73
2022/08/25 11:42:54;;;;;;;12.20;6.60;;;;;;;27.77;73.94;100360.48;130349;1270;108803;-74
2022/08/25 11:46:14;;;;;;;12.70;6.50;;;;;;;27.85;73.81;100353.29;130218;1270;109465;-73
2022/08/25 11:49:46;;;;;;;15.50;6.50;;;;;;;28.11;74.21;100353.57;130246;1270;107136;-73
2022/08/25 11:52:55;;;;;;;11.80;6.00;;;;;;;28.36;73.38;100351.41;130275;1270;108590;-73
2022/08/25 11:56:04;;;;;;;13.20;6.30;;;;;;;28.50;73.17;100348.56;130270;1270;108134;-73
2022/08/25 11:59:10;;;;;;;11.30;6.30;;;;;;;28.58;72.89;100344.65;130280;1269;108460;-73
2022/08/25 12:06:13;;;;;;;13.50;6.60;;;;;;;28.62;72.63;100343.61;126044;1310;635812;-73
2022/08/25 12:09:21;;;;;;;13.10;6.10;;;;;;;28.62;72.51;100338.33;129287;1279;108677;-73
2022/08/25 12:12:31;;;;;;;12.00;5.60;;;;;;;28.62;70.87;100333.84;129532;1277;108757;-73
2022/08/25 12:15:58;;;;;;;14.30;5.30;;;;;;;28.63;70.89;100331.03;129511;1277;108812;-73
2022/08/25 12:19:28;;;;;;;14.20;6.20;;;;;;;28.68;70.65;100332.91;128647;1274;1279850;-73
2022/08/25 12:22:57;;;;;;;17.00;5.90;;;;;;;28.67;69.29;100332.42;129736;1276;109416;-73
2022/08/25 12:26:08;;;;;;;9.90;5.00;;;;;;;28.69;69.73;100331.77;129655;1277;108793;-73
2022/08/25 12:29:20;;;;;;;11.60;4.70;;;;;;;28.68;68.58;100332.52;129704;1277;108688;-74
2022/08/25 12:32:41;;;;;;;7.60;4.80;;;;;;;28.67;68.09;100331.04;129660;1274;108718;-72
2022/08/25 12:35:53;;;;;;;;;;;;;;;28.70;68.13;100334.84;129718;1274;108819;-72
2022/08/25 12:39:15;;;;;;;9.00;4.10;;;;;;;28.74;67.51;100327.54;129947;1271;106989;-72
2022/08/25 12:42:31;;;;;;;7.10;3.70;;;;;;;28.74;65.88;100325.95;129974;1271;108956;-72
2022/08/25 12:45:41;;;;;;;12.60;4.50;;;;;;;28.72;65.61;100326.11;129953;1271;108570;-72
2022/08/25 12:48:58;;;;;;;8.40;4.50;;;;;;;28.70;64.90;100317.71;129986;1271;108699;-72
2022/08/25 12:52:07;;;;;;;12.90;4.60;;;;;;;28.70;64.62;100316.83;130033;1271;108873;-72
2022/08/25 12:55:14;;;;;;;10.70;4.20;;;;;;;28.71;64.44;100316.54;130012;1271;108715;-71
2022/08/25 12:58:19;;;;;;;11.50;4.40;;;;;;;28.73;64.28;100317.21;129980;1271;108602;-73
2022/08/25 13:01:33;;;;;;;11.20;4.10;;;;;;;28.76;63.56;100316.06;130179;1271;107446;-72
2022/08/25 13:05:04;;;;;;;8.90;3.50;;;;;;;28.76;63.28;100315.13;130199;1271;108715;-72
2022/08/25 13:08:29;;;;;;;14.10;4.10;;;;;;;28.77;62.63;100312.49;130141;1271;109749;-72
2022/08/25 13:11:42;;;;;;;5.60;3.10;;;;;;;28.83;62.53;100309.04;129942;1271;108936;-72
2022/08/25 13:14:54;;;;;;;9.60;3.30;;;;;;;28.86;61.46;100306.58;129988;1271;108448;-72
2022/08/25 13:18:15;;;;;;;7.20;3.20;;;;;;;28.88;60.89;100309.70;129976;1271;108720;-74
2022/08/25 13:21:24;;;;;;;9.90;3.50;;;;;;;28.90;60.77;100306.95;130058;1270;108874;-72
2022/08/25 13:24:33;;;;;;;8.70;3.10;;;;;;;28.88;60.03;100313.23;130031;1271;108994;-74
2022/08/25 13:27:39;;;;;;;6.10;3.00;;;;;;;28.86;59.24;100313.16;130135;1270;109057;-74
2022/08/25 13:30:44;;;;;;;8.00;3.00;;;;;;;28.81;58.70;100311.45;130241;1271;108637;-72
2022/08/25 13:33:55;;;;;;;6.50;2.80;;;;;;;28.77;58.46;100311.67;130161;1271;108755;-72
2022/08/25 13:40:35;;;;;;;7.80;4.70;;;;;;;28.77;58.54;100298.70;130022;1271;108770;-72
2022/08/25 13:43:40;;;;;;;7.00;3.40;;;;;;;28.79;58.16;100298.17;129949;1271;108506;-72
2022/08/25 13:46:47;;;;;;;8.30;3.30;;;;;;;28.80;57.99;100297.95;129962;1271;108638;-72
2022/08/25 13:49:52;;;;;;;6.40;3.40;;;;;;;28.78;57.52;100297.48;130033;1271;108978;-73
2022/08/25 13:52:59;;;;;;;7.30;3.70;;;;;;;28.78;57.41;100296.45;130056;1271;108591;-71
2022/08/25 13:56:06;;;;;;;6.20;3.40;;;;;;;28.77;57.40;100295.25;130360;1271;108574;-71
2022/08/25 13:59:24;;;;;;;8.20;2.90;;;;;;;28.79;56.68;100292.34;130202;1270;108663;-71
2022/08/25 14:02:44;;;;;;;9.00;3.50;;;;;;;28.77;56.23;100284.27;130210;1270;107607;-70
2022/08/25 14:06:06;;;;;;;8.20;3.30;;;;;;;28.76;56.13;100277.39;129989;1271;108419;-73
2022/08/25 14:09:17;;;;;;;12.10;3.30;;;;;;;28.73;55.77;100275.96;130083;1271;108722;-73
2022/08/25 14:12:33;;;;;;;5.90;3.40;;;;;;;28.72;55.79;100274.66;129972;1271;108794;-72
2022/08/25 14:15:38;;;;;;;6.80;3.30;;;;;;;28.73;55.59;100277.30;129995;1271;108749;-73
2022/08/25 14:18:52;;;;;;;7.50;3.40;;;;;;;28.72;54.98;100273.17;130135;1271;108791;-73
2022/08/25 14:22:00;;;;;;;8.70;3.20;;;;;;;28.69;54.61;100272.89;129979;1271;108459;-72
2022/08/25 14:25:08;;;;;;;10.30;3.90;;;;;;;28.68;54.68;100268.51;130104;1271;108530;-76
2022/08/25 14:28:16;;;;;;;8.60;3.60;;;;;;;28.69;54.73;100269.42;129977;1271;108482;-75
2022/08/25 14:31:27;;;;;;;6.80;3.40;;;;;;;28.69;54.12;100263.67;130085;1271;107529;-76
2022/08/25 14:34:36;;;;;;;6.50;3.30;;;;;;;28.70;54.01;100267.35;129952;1274;109005;-71
2022/08/25 14:37:43;;;;;;;6.80;3.20;;;;;;;28.68;53.65;100264.27;130128;1271;109664;-73